sensor_id;sensor_type;location;lat;lon;timestamp;pressure;altitude;pressure_sealevel;temperature;humidity
29535;BME280;72082;52.650;8.116;2023-11-21T00:01:44;100782.22;;;7.72;100.00
29535;BME280;72082;52.650;8.116;2023-11-21T00:04:09;100777.13;;;7.71;100.00
29535;BME280;72082;52.650;8.116;2023-11-21T00:06:34;100782.22;;;7.71;100.00
29535;BME280;72082;52.650;8.116;2023-11-21T00:08:59;100785.59;;;7.70;100.00
29535;BME280;72082;52.650;8.116;2023-11-21T00:11:25;100786.41;;;7.67;100.00
29535;BME280;72082;52.650;8.116;2023-11-21T00:13:50;100785.56;;;7.64;100.00
29535;BME280;72082;52.650;8.116;2023-11-21T00:16:15;100790.63;;;7.61;100.00
29535;BME280;72082;52.650;8.116;2023-11-21T00:18:40;100793.97;;;7.57;100.00
29535;BME280;72082;52.650;8.116;2023-11-21T00:21:06;100801.63;;;7.55;100.00
29535;BME280;72082;52.650;8.116;2023-11-21T00:23:31;100796.50;;;7.57;100.00
29535;BME280;72082;52.650;8.116;2023-11-21T00:25:56;100799.94;;;7.59;100.00
29535;BME280;72082;52.650;8.116;2023-11-21T00:28:21;100802.50;;;7.60;100.00
29535;BME280;72082;52.650;8.116;2023-11-21T00:30:47;100797.38;;;7.59;100.00
29535;BME280;72082;52.650;8.116;2023-11-21T00:33:12;100788.03;;;7.58;100.00
29535;BME280;72082;52.650;8.116;2023-11-21T00:35:37;100784.59;;;7.54;100.00
29535;BME280;72082;52.650;8.116;2023-11-21T00:38:02;100790.53;;;7.52;100.00
29535;BME280;72082;52.650;8.116;2023-11-21T00:40:27;100786.25;;;7.49;100.00
29535;BME280;72082;52.650;8.116;2023-11-21T00:42:53;100789.66;;;7.48;100.00
29535;BME280;72082;52.650;8.116;2023-11-21T00:45:18;100792.16;;;7.46;100.00
29535;BME280;72082;52.650;8.116;2023-11-21T00:47:43;100799.81;;;7.46;100.00
29535;BME280;72082;52.650;8.116;2023-11-21T00:50:09;100799.81;;;7.46;100.00
29535;BME280;72082;52.650;8.116;2023-11-21T00:52:34;100804.94;;;7.48;100.00
29535;BME280;72082;52.650;8.116;2023-11-21T00:55:00;100806.69;;;7.51;100.00
29535;BME280;72082;52.650;8.116;2023-11-21T00:57:26;100799.03;;;7.51;100.00
29535;BME280;72082;52.650;8.116;2023-11-21T00:59:51;100802.44;;;7.53;100.00
29535;BME280;72082;52.650;8.116;2023-11-21T01:02:16;100807.53;;;7.53;100.00
29535;BME280;72082;52.650;8.116;2023-11-21T01:04:42;100806.69;;;7.54;100.00
29535;BME280;72082;52.650;8.116;2023-11-21T01:07:07;100806.69;;;7.54;100.00
29535;BME280;72082;52.650;8.116;2023-11-21T01:09:32;100807.53;;;7.53;100.00
29535;BME280;72082;52.650;8.116;2023-11-21T01:11:57;100799.03;;;7.52;100.00
29535;BME280;72082;52.650;8.116;2023-11-21T01:14:23;100795.63;;;7.52;100.00
29535;BME280;72082;52.650;8.116;2023-11-21T01:16:48;100806.69;;;7.52;100.00
29535;BME280;72082;52.650;8.116;2023-11-21T01:19:13;100808.38;;;7.52;100.00
29535;BME280;72082;52.650;8.116;2023-11-21T01:21:38;100807.53;;;7.53;100.00
29535;BME280;72082;52.650;8.116;2023-11-21T01:24:04;100809.22;;;7.54;100.00
29535;BME280;72082;52.650;8.116;2023-11-21T01:26:29;100819.47;;;7.57;100.00
29535;BME280;72082;52.650;8.116;2023-11-21T01:28:54;100820.31;;;7.57;100.00
29535;BME280;72082;52.650;8.116;2023-11-21T01:31:20;100823.75;;;7.59;100.00
29535;BME280;72082;52.650;8.116;2023-11-21T01:33:45;100828.00;;;7.62;100.00
29535;BME280;72082;52.650;8.116;2023-11-21T01:36:10;100828.91;;;7.64;100.00
29535;BME280;72082;52.650;8.116;2023-11-21T01:38:35;100826.34;;;7.65;100.00
29535;BME280;72082;52.650;8.116;2023-11-21T01:41:01;100836.56;;;7.67;100.00
29535;BME280;72082;52.650;8.116;2023-11-21T01:43:27;100837.47;;;7.70;100.00
29535;BME280;72082;52.650;8.116;2023-11-21T01:45:54;100841.72;;;7.73;100.00
29535;BME280;72082;52.650;8.116;2023-11-21T01:48:19;100829.00;;;7.74;100.00
29535;BME280;72082;52.650;8.116;2023-11-21T01:50:44;100835.81;;;7.75;100.00
29535;BME280;72082;52.650;8.116;2023-11-21T01:53:11;100834.13;;;7.76;100.00
29535;BME280;72082;52.650;8.116;2023-11-21T01:55:37;100842.63;;;7.78;100.00
29535;BME280;72082;52.650;8.116;2023-11-21T01:58:02;100842.66;;;7.79;100.00
29535;BME280;72082;52.650;8.116;2023-11-21T02:00:28;100846.94;;;7.82;100.00
29535;BME280;72082;52.650;8.116;2023-11-21T02:02:53;100840.97;;;7.83;100.00
29535;BME280;72082;52.650;8.116;2023-11-21T02:05:19;100853.75;;;7.84;100.00
29535;BME280;72082;52.650;8.116;2023-11-21T02:07:45;100855.50;;;7.87;100.00
29535;BME280;72082;52.650;8.116;2023-11-21T02:10:11;100857.19;;;7.88;100.00
29535;BME280;72082;52.650;8.116;2023-11-21T02:12:36;100858.88;;;7.87;100.00
29535;BME280;72082;52.650;8.116;2023-11-21T02:15:02;100857.19;;;7.88;100.00
29535;BME280;72082;52.650;8.116;2023-11-21T02:17:28;100859.72;;;7.86;100.00
29535;BME280;72082;52.650;8.116;2023-11-21T02:19:53;100859.72;;;7.86;100.00
29535;BME280;72082;52.650;8.116;2023-11-21T02:22:19;100854.63;;;7.86;100.00
29535;BME280;72082;52.650;8.116;2023-11-21T02:24:45;100864.84;;;7.88;100.00
29535;BME280;72082;52.650;8.116;2023-11-21T02:27:12;100870.78;;;7.87;100.00
29535;BME280;72082;52.650;8.116;2023-11-21T02:29:37;100875.91;;;7.87;100.00
29535;BME280;72082;52.650;8.116;2023-11-21T02:32:02;100876.72;;;7.87;100.00
29535;BME280;72082;52.650;8.116;2023-11-21T02:34:27;100875.06;;;7.89;100.00
29535;BME280;72082;52.650;8.116;2023-11-21T02:36:52;100877.63;;;7.91;100.00
29535;BME280;72082;52.650;8.116;2023-11-21T02:39:18;100879.34;;;7.92;100.00
29535;BME280;72082;52.650;8.116;2023-11-21T02:41:44;100881.03;;;7.93;100.00
29535;BME280;72082;52.650;8.116;2023-11-21T02:44:09;100881.03;;;7.93;100.00
29535;BME280;72082;52.650;8.116;2023-11-21T02:46:36;100874.25;;;7.93;100.00
29535;BME280;72082;52.650;8.116;2023-11-21T02:49:02;100882.75;;;7.94;100.00
29535;BME280;72082;52.650;8.116;2023-11-21T02:51:27;100877.66;;;7.94;100.00
29535;BME280;72082;52.650;8.116;2023-11-21T02:53:53;100878.53;;;7.94;100.00
29535;BME280;72082;52.650;8.116;2023-11-21T02:56:18;100882.75;;;7.95;100.00
29535;BME280;72082;52.650;8.116;2023-11-21T02:58:44;100873.41;;;7.96;100.00
29535;BME280;72082;52.650;8.116;2023-11-21T03:01:09;100885.34;;;7.97;100.00
29535;BME280;72082;52.650;8.116;2023-11-21T03:03:34;100881.94;;;7.98;100.00
29535;BME280;72082;52.650;8.116;2023-11-21T03:06:03;100889.59;;;7.98;100.00
29535;BME280;72082;52.650;8.116;2023-11-21T03:08:28;100890.47;;;8.00;100.00
29535;BME280;72082;52.650;8.116;2023-11-21T03:10:53;100887.94;;;8.00;100.00
29535;BME280;72082;52.650;8.116;2023-11-21T03:13:18;100885.38;;;8.01;100.00
29535;BME280;72082;52.650;8.116;2023-11-21T03:15:43;100890.47;;;8.01;100.00
29535;BME280;72082;52.650;8.116;2023-11-21T03:18:09;100882.81;;;8.03;100.00
29535;BME280;72082;52.650;8.116;2023-11-21T03:20:34;100893.03;;;8.03;100.00
29535;BME280;72082;52.650;8.116;2023-11-21T03:22:59;100888.78;;;8.03;100.00
29535;BME280;72082;52.650;8.116;2023-11-21T03:25:24;100887.94;;;8.03;100.00
29535;BME280;72082;52.650;8.116;2023-11-21T03:27:50;100905.78;;;8.03;100.00
29535;BME280;72082;52.650;8.116;2023-11-21T03:30:15;100910.06;;;8.04;100.00
29535;BME280;72082;52.650;8.116;2023-11-21T03:32:40;100905.81;;;8.04;100.00
29535;BME280;72082;52.650;8.116;2023-11-21T03:35:06;100907.53;;;8.04;100.00
29535;BME280;72082;52.650;8.116;2023-11-21T03:37:31;100910.06;;;8.04;100.00
29535;BME280;72082;52.650;8.116;2023-11-21T03:39:56;100907.53;;;8.02;100.00
29535;BME280;72082;52.650;8.116;2023-11-21T03:42:21;100905.78;;;8.03;100.00
29535;BME280;72082;52.650;8.116;2023-11-21T03:44:47;100918.56;;;8.03;100.00
29535;BME280;72082;52.650;8.116;2023-11-21T03:47:12;100916.03;;;8.04;100.00
29535;BME280;72082;52.650;8.116;2023-11-21T03:49:37;100922.00;;;8.05;100.00
29535;BME280;72082;52.650;8.116;2023-11-21T03:52:03;100927.09;;;8.05;100.00
29535;BME280;72082;52.650;8.116;2023-11-21T03:54:28;100931.34;;;8.06;100.00
29535;BME280;72082;52.650;8.116;2023-11-21T03:56:53;100928.78;;;8.06;100.00
29535;BME280;72082;52.650;8.116;2023-11-21T03:59:19;100939.91;;;8.08;100.00
29535;BME280;72082;52.650;8.116;2023-11-21T04:01:44;100937.34;;;8.08;100.00
29535;BME280;72082;52.650;8.116;2023-11-21T04:04:09;100942.44;;;8.08;100.00
29535;BME280;72082;52.650;8.116;2023-11-21T04:06:34;100952.66;;;8.08;100.00
29535;BME280;72082;52.650;8.116;2023-11-21T04:08:59;100952.66;;;8.08;100.00
29535;BME280;72082;52.650;8.116;2023-11-21T04:11:25;100957.75;;;8.08;100.00
29535;BME280;72082;52.650;8.116;2023-11-21T04:13:50;100957.75;;;8.08;100.00
29535;BME280;72082;52.650;8.116;2023-11-21T04:16:15;100952.66;;;8.08;100.00
29535;BME280;72082;52.650;8.116;2023-11-21T04:18:41;100962.88;;;8.08;100.00
29535;BME280;72082;52.650;8.116;2023-11-21T04:21:06;100968.81;;;8.08;100.00
29535;BME280;72082;52.650;8.116;2023-11-21T04:23:32;100971.38;;;8.10;100.00
29535;BME280;72082;52.650;8.116;2023-11-21T04:25:57;100973.09;;;8.11;100.00
29535;BME280;72082;52.650;8.116;2023-11-21T04:28:23;100977.38;;;8.14;100.00
29535;BME280;72082;52.650;8.116;2023-11-21T04:30:48;100974.84;;;8.15;100.00
29535;BME280;72082;52.650;8.116;2023-11-21T04:33:13;100979.94;;;8.15;100.00
29535;BME280;72082;52.650;8.116;2023-11-21T04:35:39;100986.75;;;8.16;100.00
29535;BME280;72082;52.650;8.116;2023-11-21T04:38:04;100991.03;;;8.17;100.00
29535;BME280;72082;52.650;8.116;2023-11-21T04:40:29;100991.88;;;8.19;100.00
29535;BME280;72082;52.650;8.116;2023-11-21T04:42:54;100991.06;;;8.20;100.00
29535;BME280;72082;52.650;8.116;2023-11-21T04:45:19;101001.28;;;8.22;100.00
29535;BME280;72082;52.650;8.116;2023-11-21T04:47:45;101006.41;;;8.23;100.00
29535;BME280;72082;52.650;8.116;2023-11-21T04:50:10;101002.16;;;8.25;100.00
29535;BME280;72082;52.650;8.116;2023-11-21T04:52:35;101003.91;;;8.26;100.00
29535;BME280;72082;52.650;8.116;2023-11-21T04:55:00;101003.94;;;8.28;100.00
29535;BME280;72082;52.650;8.116;2023-11-21T04:57:26;101003.97;;;8.31;100.00
29535;BME280;72082;52.650;8.116;2023-11-21T04:59:51;101010.75;;;8.30;100.00
29535;BME280;72082;52.650;8.116;2023-11-21T05:02:16;101007.34;;;8.30;100.00
29535;BME280;72082;52.650;8.116;2023-11-21T05:04:41;101014.19;;;8.32;100.00
29535;BME280;72082;52.650;8.116;2023-11-21T05:07:06;101002.28;;;8.33;100.00
29535;BME280;72082;52.650;8.116;2023-11-21T05:09:32;101007.38;;;8.31;100.00
29535;BME280;72082;52.650;8.116;2023-11-21T05:11:57;101016.72;;;8.32;100.00
29535;BME280;72082;52.650;8.116;2023-11-21T05:14:23;101017.59;;;8.33;100.00
29535;BME280;72082;52.650;8.116;2023-11-21T05:16:48;101025.25;;;8.34;100.00
29535;BME280;72082;52.650;8.116;2023-11-21T05:19:13;101030.38;;;8.34;100.00
29535;BME280;72082;52.650;8.116;2023-11-21T05:21:38;101032.91;;;8.34;100.00
29535;BME280;72082;52.650;8.116;2023-11-21T05:24:04;101024.44;;;8.35;100.00
29535;BME280;72082;52.650;8.116;2023-11-21T05:26:29;101028.69;;;8.35;100.00
29535;BME280;72082;52.650;8.116;2023-11-21T05:28:54;101036.38;;;8.36;100.00
29535;BME280;72082;52.650;8.116;2023-11-21T05:31:19;101038.06;;;8.37;100.00
29535;BME280;72082;52.650;8.116;2023-11-21T05:33:45;101046.63;;;8.39;100.00
29535;BME280;72082;52.650;8.116;2023-11-21T05:36:10;101044.06;;;8.41;100.00
29535;BME280;72082;52.650;8.116;2023-11-21T05:38:36;101050.00;;;8.40;100.00
29535;BME280;72082;52.650;8.116;2023-11-21T05:41:02;101048.31;;;8.39;100.00
29535;BME280;72082;52.650;8.116;2023-11-21T05:43:27;101056.84;;;8.39;100.00
29535;BME280;72082;52.650;8.116;2023-11-21T05:45:52;101067.88;;;8.40;100.00
29535;BME280;72082;52.650;8.116;2023-11-21T05:48:17;101066.22;;;8.42;100.00
29535;BME280;72082;52.650;8.116;2023-11-21T05:50:42;101068.78;;;8.42;100.00
29535;BME280;72082;52.650;8.116;2023-11-21T05:53:08;101074.72;;;8.42;100.00
29535;BME280;72082;52.650;8.116;2023-11-21T05:55:33;101069.59;;;8.42;100.00
29535;BME280;72082;52.650;8.116;2023-11-21T05:57:58;101074.72;;;8.42;100.00
29535;BME280;72082;52.650;8.116;2023-11-21T06:00:23;101081.53;;;8.43;100.00
29535;BME280;72082;52.650;8.116;2023-11-21T06:02:49;101079.00;;;8.43;100.00
29535;BME280;72082;52.650;8.116;2023-11-21T06:05:14;101086.66;;;8.45;100.00
29535;BME280;72082;52.650;8.116;2023-11-21T06:07:40;101086.69;;;8.46;100.00
29535;BME280;72082;52.650;8.116;2023-11-21T06:10:06;101088.38;;;8.47;100.00
29535;BME280;72082;52.650;8.116;2023-11-21T06:12:32;101104.56;;;8.48;100.00
29535;BME280;72082;52.650;8.116;2023-11-21T06:14:57;101109.69;;;8.48;100.00
29535;BME280;72082;52.650;8.116;2023-11-21T06:17:22;101114.78;;;8.48;100.00
29535;BME280;72082;52.650;8.116;2023-11-21T06:19:47;101115.66;;;8.48;100.00
29535;BME280;72082;52.650;8.116;2023-11-21T06:22:12;101123.31;;;8.48;100.00
29535;BME280;72082;52.650;8.116;2023-11-21T06:24:38;101124.19;;;8.49;100.00
29535;BME280;72082;52.650;8.116;2023-11-21T06:27:04;101127.59;;;8.49;100.00
29535;BME280;72082;52.650;8.116;2023-11-21T06:29:29;101132.69;;;8.51;100.00
29535;BME280;72082;52.650;8.116;2023-11-21T06:31:54;101137.81;;;8.51;100.00
29535;BME280;72082;52.650;8.116;2023-11-21T06:34:19;101140.38;;;8.51;100.00
29535;BME280;72082;52.650;8.116;2023-11-21T06:36:45;101143.78;;;8.51;100.00
29535;BME280;72082;52.650;8.116;2023-11-21T06:39:10;101149.75;;;8.53;100.00
29535;BME280;72082;52.650;8.116;2023-11-21T06:41:35;101157.41;;;8.53;100.00
29535;BME280;72082;52.650;8.116;2023-11-21T06:44:00;101161.69;;;8.54;100.00
29535;BME280;72082;52.650;8.116;2023-11-21T06:46:25;101165.94;;;8.55;100.00
29535;BME280;72082;52.650;8.116;2023-11-21T06:48:51;101169.41;;;8.57;100.00
29535;BME280;72082;52.650;8.116;2023-11-21T06:51:16;101177.91;;;8.58;100.00
29535;BME280;72082;52.650;8.116;2023-11-21T06:53:41;101179.63;;;8.59;100.00
29535;BME280;72082;52.650;8.116;2023-11-21T06:56:16;101178.78;;;8.60;100.00
29535;BME280;72082;52.650;8.116;2023-11-21T06:58:42;101185.59;;;8.61;100.00
29535;BME280;72082;52.650;8.116;2023-11-21T07:01:07;101189.88;;;8.62;100.00
29535;BME280;72082;52.650;8.116;2023-11-21T07:03:32;101188.19;;;8.62;100.00
29535;BME280;72082;52.650;8.116;2023-11-21T07:05:57;101191.63;;;8.64;100.00
29535;BME280;72082;52.650;8.116;2023-11-21T07:08:23;101188.22;;;8.65;100.00
29535;BME280;72082;52.650;8.116;2023-11-21T07:10:48;101195.03;;;8.66;100.00
29535;BME280;72082;52.650;8.116;2023-11-21T07:13:13;101201.88;;;8.67;100.00
29535;BME280;72082;52.650;8.116;2023-11-21T07:15:38;101202.75;;;8.68;100.00
29535;BME280;72082;52.650;8.116;2023-11-21T07:18:03;101196.78;;;8.69;100.00
29535;BME280;72082;52.650;8.116;2023-11-21T07:20:29;101209.56;;;8.71;100.00
29535;BME280;72082;52.650;8.116;2023-11-21T07:22:54;101218.06;;;8.71;100.00
29535;BME280;72082;52.650;8.116;2023-11-21T07:25:19;101220.63;;;8.71;100.00
29535;BME280;72082;52.650;8.116;2023-11-21T07:27:44;101217.25;;;8.72;100.00
29535;BME280;72082;52.650;8.116;2023-11-21T07:30:10;101217.25;;;8.71;100.00
29535;BME280;72082;52.650;8.116;2023-11-21T07:32:35;101222.34;;;8.71;100.00
29535;BME280;72082;52.650;8.116;2023-11-21T07:35:01;101229.16;;;8.72;100.00
29535;BME280;72082;52.650;8.116;2023-11-21T07:37:26;101232.56;;;8.71;100.00
29535;BME280;72082;52.650;8.116;2023-11-21T07:39:51;101234.25;;;8.70;100.00
29535;BME280;72082;52.650;8.116;2023-11-21T07:42:16;101240.19;;;8.67;100.00
29535;BME280;72082;52.650;8.116;2023-11-21T07:44:42;101248.69;;;8.66;100.00
29535;BME280;72082;52.650;8.116;2023-11-21T07:47:07;101258.91;;;8.66;100.00
29535;BME280;72082;52.650;8.116;2023-11-21T07:49:32;101262.31;;;8.65;100.00
29535;BME280;72082;52.650;8.116;2023-11-21T07:51:57;101265.69;;;8.66;100.00
29535;BME280;72082;52.650;8.116;2023-11-21T07:54:22;101267.44;;;8.65;100.00
29535;BME280;72082;52.650;8.116;2023-11-21T07:56:48;101268.25;;;8.66;100.00
29535;BME280;72082;52.650;8.116;2023-11-21T07:59:13;101270.81;;;8.66;100.00
29535;BME280;72082;52.650;8.116;2023-11-21T08:01:38;101281.91;;;8.66;100.00
29535;BME280;72082;52.650;8.116;2023-11-21T08:04:03;101287.00;;;8.66;100.00
29535;BME280;72082;52.650;8.116;2023-11-21T08:06:29;101278.47;;;8.64;100.00
29535;BME280;72082;52.650;8.116;2023-11-21T08:08:55;101291.25;;;8.64;100.00
29535;BME280;72082;52.650;8.116;2023-11-21T08:11:20;101305.69;;;8.64;100.00
29535;BME280;72082;52.650;8.116;2023-11-21T08:13:45;101312.50;;;8.63;100.00
29535;BME280;72082;52.650;8.116;2023-11-21T08:16:10;101320.16;;;8.63;100.00
29535;BME280;72082;52.650;8.116;2023-11-21T08:18:35;101319.31;;;8.63;100.00
29535;BME280;72082;52.650;8.116;2023-11-21T08:21:01;101331.25;;;8.62;100.00
29535;BME280;72082;52.650;8.116;2023-11-21T08:23:26;101335.53;;;8.65;100.00
29535;BME280;72082;52.650;8.116;2023-11-21T08:25:52;101338.97;;;8.68;100.00
29535;BME280;72082;52.650;8.116;2023-11-21T08:28:18;101338.19;;;8.73;100.00
29535;BME280;72082;52.650;8.116;2023-11-21T08:30:44;101340.81;;;8.77;100.00
29535;BME280;72082;52.650;8.116;2023-11-21T08:33:09;101347.66;;;8.80;100.00
29535;BME280;72082;52.650;8.116;2023-11-21T08:35:35;101352.81;;;8.81;100.00
29535;BME280;72082;52.650;8.116;2023-11-21T08:38:00;101356.19;;;8.82;100.00
29535;BME280;72082;52.650;8.116;2023-11-21T08:40:26;101354.50;;;8.82;100.00
29535;BME280;72082;52.650;8.116;2023-11-21T08:42:51;101363.03;;;8.81;100.00
29535;BME280;72082;52.650;8.116;2023-11-21T08:45:16;101366.34;;;8.79;100.00
29535;BME280;72082;52.650;8.116;2023-11-21T08:47:42;101373.19;;;8.78;100.00
29535;BME280;72082;52.650;8.116;2023-11-21T08:50:07;101375.72;;;8.77;100.00
29535;BME280;72082;52.650;8.116;2023-11-21T08:52:33;101378.25;;;8.77;100.00
29535;BME280;72082;52.650;8.116;2023-11-21T08:54:59;101387.63;;;8.76;100.00
29535;BME280;72082;52.650;8.116;2023-11-21T08:57:25;101391.03;;;8.77;100.00
29535;BME280;72082;52.650;8.116;2023-11-21T08:59:50;101402.13;;;8.76;100.00
29535;BME280;72082;52.650;8.116;2023-11-21T09:02:15;101408.06;;;8.75;100.00
29535;BME280;72082;52.650;8.116;2023-11-21T09:04:40;101412.34;;;8.76;100.00
29535;BME280;72082;52.650;8.116;2023-11-21T09:07:06;101422.56;;;8.77;100.00
29535;BME280;72082;52.650;8.116;2023-11-21T09:09:31;101426.84;;;8.78;100.00
29535;BME280;72082;52.650;8.116;2023-11-21T09:11:56;101431.97;;;8.78;100.00
29535;BME280;72082;52.650;8.116;2023-11-21T09:14:21;101429.41;;;8.78;100.00
29535;BME280;72082;52.650;8.116;2023-11-21T09:16:46;101434.53;;;8.78;100.00
29535;BME280;72082;52.650;8.116;2023-11-21T09:19:12;101427.69;;;8.77;100.00
29535;BME280;72082;52.650;8.116;2023-11-21T09:21:37;101440.47;;;8.79;100.00
29535;BME280;72082;52.650;8.116;2023-11-21T09:24:02;101443.88;;;8.78;100.00
29535;BME280;72082;52.650;8.116;2023-11-21T09:26:28;101449.81;;;8.77;100.00
29535;BME280;72082;52.650;8.116;2023-11-21T09:28:53;101467.75;;;8.78;100.00
29535;BME280;72082;52.650;8.116;2023-11-21T09:31:18;101471.22;;;8.83;100.00
29535;BME280;72082;52.650;8.116;2023-11-21T09:33:43;101469.66;;;8.93;100.00
29535;BME280;72082;52.650;8.116;2023-11-21T09:36:12;101473.25;;;9.04;100.00
29535;BME280;72082;52.650;8.116;2023-11-21T09:38:37;101474.25;;;9.15;100.00
29535;BME280;72082;52.650;8.116;2023-11-21T09:41:03;101469.16;;;9.18;100.00
29535;BME280;72082;52.650;8.116;2023-11-21T09:43:30;101475.97;;;9.16;100.00
29535;BME280;72082;52.650;8.116;2023-11-21T09:46:00;101473.34;;;9.13;100.00
29535;BME280;72082;52.650;8.116;2023-11-21T09:48:26;101475.03;;;9.09;100.00
29535;BME280;72082;52.650;8.116;2023-11-21T09:50:53;101480.09;;;9.08;100.00
29535;BME280;72082;52.650;8.116;2023-11-21T09:53:20;101487.78;;;9.08;100.00
29535;BME280;72082;52.650;8.116;2023-11-21T09:55:48;101490.38;;;9.11;100.00
29535;BME280;72082;52.650;8.116;2023-11-21T09:58:14;101501.47;;;9.13;100.00
29535;BME280;72082;52.650;8.116;2023-11-21T10:00:44;101500.66;;;9.15;100.00
29535;BME280;72082;52.650;8.116;2023-11-21T10:03:10;101502.56;;;9.27;100.00
29535;BME280;72082;52.650;8.116;2023-11-21T10:05:36;101511.31;;;9.44;100.00
29535;BME280;72082;52.650;8.116;2023-11-21T10:08:04;101520.91;;;9.60;100.00
29535;BME280;72082;52.650;8.116;2023-11-21T10:10:29;101516.81;;;9.71;100.00
29535;BME280;72082;52.650;8.116;2023-11-21T10:12:57;101522.81;;;9.73;100.00
29535;BME280;72082;52.650;8.116;2023-11-21T10:15:25;101528.78;;;9.72;100.00
29535;BME280;72082;52.650;8.116;2023-11-21T10:17:52;101527.00;;;9.68;100.00
29535;BME280;72082;52.650;8.116;2023-11-21T10:20:17;101529.47;;;9.61;100.00
29535;BME280;72082;52.650;8.116;2023-11-21T10:22:43;101525.97;;;9.56;100.00
29535;BME280;72082;52.650;8.116;2023-11-21T10:25:09;101531.94;;;9.55;100.00
29535;BME280;72082;52.650;8.116;2023-11-21T10:27:36;101540.56;;;9.61;100.00
29535;BME280;72082;52.650;8.116;2023-11-21T10:30:02;101551.88;;;9.77;100.00
29535;BME280;72082;52.650;8.116;2023-11-21T10:32:28;101562.38;;;10.00;100.00
29535;BME280;72082;52.650;8.116;2023-11-21T10:34:57;101548.13;;;10.20;100.00
29535;BME280;72082;52.650;8.116;2023-11-21T10:37:22;101551.59;;;10.25;100.00
29535;BME280;72082;52.650;8.116;2023-11-21T10:39:47;101560.97;;;10.23;100.00
29535;BME280;72082;52.650;8.116;2023-11-21T10:42:12;101552.34;;;10.13;100.00
29535;BME280;72082;52.650;8.116;2023-11-21T10:44:38;101562.44;;;10.04;100.00
29535;BME280;72082;52.650;8.116;2023-11-21T10:47:03;101564.94;;;9.98;100.00
29535;BME280;72082;52.650;8.116;2023-11-21T10:49:28;101565.72;;;9.92;100.00
29535;BME280;72082;52.650;8.116;2023-11-21T10:51:54;101570.75;;;9.85;100.00
29535;BME280;72082;52.650;8.116;2023-11-21T10:54:20;101568.13;;;9.82;100.00
29535;BME280;72082;52.650;8.116;2023-11-21T10:56:48;101565.59;;;9.83;100.00
29535;BME280;72082;52.650;8.116;2023-11-21T10:59:14;101570.69;;;9.83;100.00
29535;BME280;72082;52.650;8.116;2023-11-21T11:01:39;101562.28;;;9.92;100.00
29535;BME280;72082;52.650;8.116;2023-11-21T11:04:06;101569.25;;;10.01;100.00
29535;BME280;72082;52.650;8.116;2023-11-21T11:06:32;101577.84;;;10.06;100.00
29535;BME280;72082;52.650;8.116;2023-11-21T11:09:00;101567.59;;;10.07;100.00
29535;BME280;72082;52.650;8.116;2023-11-21T11:11:26;101569.28;;;10.05;100.00
29535;BME280;72082;52.650;8.116;2023-11-21T11:13:52;101571.75;;;9.99;100.00
29535;BME280;72082;52.650;8.116;2023-11-21T11:16:17;101581.94;;;9.94;100.00
29535;BME280;72082;52.650;8.116;2023-11-21T11:18:43;101586.16;;;9.89;100.00
29535;BME280;72082;52.650;8.116;2023-11-21T11:21:38;101584.38;;;9.85;100.00
29535;BME280;72082;52.650;8.116;2023-11-21T11:32:47;101606.34;;;9.70;100.00
29535;BME280;72082;52.650;8.116;2023-11-21T11:35:29;101603.66;;;9.61;100.00
29535;BME280;72082;52.650;8.116;2023-11-21T11:37:55;101600.22;;;9.59;100.00
29535;BME280;72082;52.650;8.116;2023-11-21T11:40:22;101615.63;;;9.62;100.00
29535;BME280;72082;52.650;8.116;2023-11-21T11:42:58;101617.38;;;9.67;100.00
29535;BME280;72082;52.650;8.116;2023-11-21T11:45:25;101609.75;;;9.70;100.00
29535;BME280;72082;52.650;8.116;2023-11-21T11:47:57;101611.50;;;9.71;100.00
29535;BME280;72082;52.650;8.116;2023-11-21T11:50:22;101612.31;;;9.70;100.00
29535;BME280;72082;52.650;8.116;2023-11-21T11:52:49;101611.50;;;9.71;100.00
29535;BME280;72082;52.650;8.116;2023-11-21T11:55:16;101614.06;;;9.71;100.00
29535;BME280;72082;52.650;8.116;2023-11-21T11:57:42;101611.50;;;9.73;100.00
29535;BME280;72082;52.650;8.116;2023-11-21T12:00:08;101618.38;;;9.75;100.00
29535;BME280;72082;52.650;8.116;2023-11-21T12:02:34;101611.56;;;9.76;100.00
29535;BME280;72082;52.650;8.116;2023-11-21T12:04:59;101618.38;;;9.75;100.00
29535;BME280;72082;52.650;8.116;2023-11-21T12:07:24;101630.31;;;9.75;100.00
29535;BME280;72082;52.650;8.116;2023-11-21T12:09:50;101629.50;;;9.77;100.00
29535;BME280;72082;52.650;8.116;2023-11-21T12:12:15;101625.28;;;9.81;100.00
29535;BME280;72082;52.650;8.116;2023-11-21T12:14:40;101627.06;;;9.85;100.00
29535;BME280;72082;52.650;8.116;2023-11-21T12:17:05;101644.22;;;9.92;100.00
29535;BME280;72082;52.650;8.116;2023-11-21T12:19:31;101650.25;;;9.96;100.00
29535;BME280;72082;52.650;8.116;2023-11-21T12:21:56;101644.28;;;9.97;100.00
29535;BME280;72082;52.650;8.116;2023-11-21T12:24:21;101648.53;;;9.96;100.00
29535;BME280;72082;52.650;8.116;2023-11-21T12:26:46;101656.19;;;9.94;100.00
29535;BME280;72082;52.650;8.116;2023-11-21T12:29:11;101648.41;;;9.88;100.00
29535;BME280;72082;52.650;8.116;2023-11-21T12:31:37;101659.47;;;9.84;100.00
29535;BME280;72082;52.650;8.116;2023-11-21T12:34:02;101661.97;;;9.81;100.00
29535;BME280;72082;52.650;8.116;2023-11-21T12:36:28;101659.41;;;9.80;100.00
29535;BME280;72082;52.650;8.116;2023-11-21T12:38:54;101667.97;;;9.83;100.00
29535;BME280;72082;52.650;8.116;2023-11-21T12:41:19;101671.47;;;9.88;100.00
29535;BME280;72082;52.650;8.116;2023-11-21T12:43:44;101676.69;;;9.96;100.00
29535;BME280;72082;52.650;8.116;2023-11-21T12:46:10;101670.75;;;9.99;100.00
29535;BME280;72082;52.650;8.116;2023-11-21T12:48:41;101675.84;;;9.96;100.00
29535;BME280;72082;52.650;8.116;2023-11-21T12:51:06;101674.09;;;9.93;100.00